createdAt,value
2023-03-17T00:00:21.172Z,10.47
2023-03-17T00:01:23.995Z,10.48
2023-03-17T00:02:26.749Z,10.48
2023-03-17T00:03:30.967Z,10.47
2023-03-17T00:04:53.547Z,10.47
2023-03-17T00:06:18.723Z,10.47
2023-03-17T00:07:41.269Z,10.45
2023-03-17T00:09:03.907Z,10.44
2023-03-17T00:10:27.578Z,10.44
2023-03-17T00:11:50.184Z,10.44
2023-03-17T00:13:14.375Z,10.44
2023-03-17T00:14:36.104Z,10.44
2023-03-17T00:16:02.409Z,10.42
2023-03-17T00:17:24.976Z,10.43
2023-03-17T00:18:48.328Z,10.42
2023-03-17T00:20:15.817Z,10.42
2023-03-17T00:21:38.789Z,10.43
2023-03-17T00:23:04.208Z,10.41
2023-03-17T00:24:27.306Z,10.41
2023-03-17T00:25:53.402Z,10.39
2023-03-17T00:27:15.243Z,10.39
2023-03-17T00:28:39.389Z,10.38
2023-03-17T00:30:01.004Z,10.38
2023-03-17T00:31:27.591Z,10.38
2023-03-17T00:32:52.832Z,10.37
2023-03-17T00:34:18.284Z,10.36
2023-03-17T00:35:41.690Z,10.38
2023-03-17T00:37:04.596Z,10.37
2023-03-17T00:38:26.180Z,10.35
2023-03-17T00:39:49.288Z,10.35
2023-03-17T00:41:11.172Z,10.34
2023-03-17T00:42:34.302Z,10.33
2023-03-17T00:43:59.127Z,10.32
2023-03-17T00:45:27.291Z,10.32
2023-03-17T00:46:49.099Z,10.31
2023-03-17T00:48:15.759Z,10.29
2023-03-17T00:49:38.564Z,10.31
2023-03-17T00:51:00.672Z,10.30
2023-03-17T00:52:23.309Z,10.30
2023-03-17T00:53:45.983Z,10.30
2023-03-17T00:55:10.110Z,10.30
2023-03-17T00:56:31.897Z,10.30
2023-03-17T00:57:54.418Z,10.29
2023-03-17T00:59:24.117Z,10.29
2023-03-17T01:00:47.402Z,10.27
2023-03-17T01:02:11.110Z,10.27
2023-03-17T01:03:34.325Z,10.27
2023-03-17T01:05:05.556Z,10.26
2023-03-17T01:06:28.959Z,10.27
2023-03-17T01:07:54.563Z,10.27
2023-03-17T01:09:19.267Z,10.25
2023-03-17T01:10:42.654Z,10.26
2023-03-17T01:12:04.820Z,10.27
2023-03-17T01:13:27.504Z,10.26
2023-03-17T01:14:50.414Z,10.27
2023-03-17T01:16:13.499Z,10.26
2023-03-17T01:17:35.087Z,10.25
2023-03-17T01:18:58.330Z,10.24
2023-03-17T01:20:23.595Z,10.24
2023-03-17T01:21:47.952Z,10.24
2023-03-17T01:23:10.608Z,10.25
2023-03-17T01:24:33.562Z,10.25
2023-03-17T01:25:56.238Z,10.24
2023-03-17T01:27:19.873Z,10.23
2023-03-17T01:28:41.995Z,10.21
2023-03-17T01:30:07.706Z,10.20
2023-03-17T01:31:30.396Z,10.21
2023-03-17T01:32:52.301Z,10.18
2023-03-17T01:34:15.718Z,10.18
2023-03-17T01:35:39.123Z,10.17
2023-03-17T01:37:00.717Z,10.19
2023-03-17T01:38:24.519Z,10.19
2023-03-17T01:39:27.405Z,10.15
2023-03-17T01:40:32.427Z,10.15
2023-03-17T01:41:35.209Z,10.15
2023-03-17T01:42:37.993Z,10.14
2023-03-17T01:43:39.593Z,10.14
2023-03-17T01:44:57.864Z,10.15
2023-03-17T01:46:29.867Z,10.14
2023-03-17T01:47:31.880Z,10.14
2023-03-17T01:48:38.709Z,10.14
2023-03-17T01:49:42.254Z,10.14
2023-03-17T01:50:46.647Z,10.14
2023-03-17T01:52:00.773Z,10.15
2023-03-17T01:53:03.282Z,10.14
2023-03-17T01:54:09.276Z,10.15
2023-03-17T01:55:15.906Z,10.16
2023-03-17T01:57:22.976Z,10.17
2023-03-17T01:58:27.791Z,10.18
2023-03-17T01:59:34.758Z,10.17
2023-03-17T02:00:37.983Z,10.17
2023-03-17T02:01:47.199Z,10.17
2023-03-17T02:02:51.646Z,10.16
2023-03-17T02:03:53.887Z,10.17
2023-03-17T02:04:57.231Z,10.18
2023-03-17T02:06:00.445Z,10.17
2023-03-17T02:07:05.068Z,10.18
2023-03-17T02:08:11.083Z,10.18
2023-03-17T02:09:13.778Z,10.17
2023-03-17T02:10:19.308Z,10.18
2023-03-17T02:11:22.383Z,10.19
2023-03-17T02:12:25.812Z,10.18
2023-03-17T02:13:29.332Z,10.18
2023-03-17T02:14:31.156Z,10.19
2023-03-17T02:15:38.811Z,10.19
2023-03-17T02:16:43.942Z,10.19
2023-03-17T02:17:46.634Z,10.18
2023-03-17T02:18:48.173Z,10.17
2023-03-17T02:19:51.523Z,10.16
2023-03-17T02:21:29.199Z,10.15
2023-03-17T02:22:32.679Z,10.13
2023-03-17T02:23:34.515Z,10.12
2023-03-17T02:24:40.376Z,10.11
2023-03-17T02:25:45.290Z,10.11
2023-03-17T02:26:50.153Z,10.11
2023-03-17T02:27:57.366Z,10.09
2023-03-17T02:28:59.149Z,10.07
2023-03-17T02:30:01.784Z,10.06
2023-03-17T02:31:04.574Z,10.04
2023-03-17T02:32:09.835Z,10.04
2023-03-17T02:33:12.203Z,10.04
2023-03-17T02:34:15.671Z,10.02
2023-03-17T02:35:19.377Z,10.00
2023-03-17T02:36:22.876Z,10.00
2023-03-17T02:37:25.961Z,9.99
2023-03-17T02:38:28.584Z,9.98
2023-03-17T02:39:30.674Z,9.97
2023-03-17T02:40:33.501Z,9.96
2023-03-17T02:41:36.225Z,9.96
2023-03-17T02:42:39.939Z,9.93
2023-03-17T02:43:42.210Z,9.92
2023-03-17T02:44:44.935Z,9.91
2023-03-17T02:45:46.580Z,9.90
2023-03-17T02:46:49.234Z,9.90
2023-03-17T02:47:51.608Z,9.89
2023-03-17T02:48:55.430Z,9.88
2023-03-17T02:49:57.028Z,9.87
2023-03-17T02:50:59.900Z,9.88
2023-03-17T02:52:02.582Z,9.88
2023-03-17T02:53:05.557Z,9.87
2023-03-17T02:54:08.462Z,9.87
2023-03-17T02:55:10.486Z,9.84
2023-03-17T02:56:13.069Z,9.85
2023-03-17T02:57:14.721Z,9.84
2023-03-17T02:58:17.586Z,9.85
2023-03-17T02:59:19.165Z,9.83
2023-03-17T03:00:22.579Z,9.83
2023-03-17T03:01:29.300Z,9.82
2023-03-17T03:02:31.142Z,9.82
2023-03-17T03:03:33.747Z,9.81
2023-03-17T03:04:35.930Z,9.82
2023-03-17T03:05:38.577Z,9.81
2023-03-17T03:06:42.367Z,9.81
2023-03-17T03:07:44.882Z,9.79
2023-03-17T03:08:47.815Z,9.79
2023-03-17T03:10:00.483Z,9.78
2023-03-17T03:11:02.524Z,9.78
2023-03-17T03:12:05.912Z,9.77
2023-03-17T03:13:07.848Z,9.76
2023-03-17T03:14:11.553Z,9.76
2023-03-17T03:15:13.561Z,9.76
2023-03-17T03:16:16.729Z,9.76
2023-03-17T03:17:18.304Z,9.77
2023-03-17T03:18:20.898Z,9.77
2023-03-17T03:19:22.616Z,9.77
2023-03-17T03:20:25.452Z,9.77
2023-03-17T03:21:27.549Z,9.76
2023-03-17T03:22:30.090Z,9.76
2023-03-17T03:23:32.224Z,9.76
2023-03-17T03:24:36.269Z,9.77
2023-03-17T03:25:38.614Z,9.76
2023-03-17T03:26:41.236Z,9.74
2023-03-17T03:27:42.980Z,9.73
2023-03-17T03:28:45.724Z,9.73
2023-03-17T03:29:47.517Z,9.73
2023-03-17T03:30:50.195Z,9.74
2023-03-17T03:31:55.197Z,9.73
2023-03-17T03:33:07.762Z,9.73
2023-03-17T03:34:17.552Z,9.72
2023-03-17T03:35:28.333Z,9.72
2023-03-17T03:36:39.907Z,9.72
2023-03-17T03:37:43.078Z,9.70
2023-03-17T03:38:47.074Z,9.71
2023-03-17T03:39:51.374Z,9.70
2023-03-17T03:40:54.381Z,9.69
2023-03-17T03:41:58.114Z,9.71
2023-03-17T03:43:07.463Z,9.71
2023-03-17T03:44:14.570Z,9.68
2023-03-17T03:45:17.483Z,9.69
2023-03-17T03:46:19.219Z,9.69
2023-03-17T03:47:22.883Z,9.69
2023-03-17T03:48:25.914Z,9.70
2023-03-17T03:49:27.586Z,9.68
2023-03-17T03:50:32.023Z,9.67
2023-03-17T03:51:33.766Z,9.69
2023-03-17T03:52:36.420Z,9.69
2023-03-17T03:53:37.954Z,9.68
2023-03-17T03:54:40.842Z,9.69
2023-03-17T03:55:43.701Z,9.71
2023-03-17T03:56:46.212Z,9.71
2023-03-17T03:57:47.845Z,9.71
2023-03-17T03:58:51.138Z,9.71
2023-03-17T03:59:52.742Z,9.72
2023-03-17T04:00:55.302Z,9.72
2023-03-17T04:01:57.023Z,9.72
2023-03-17T04:02:59.671Z,9.72
2023-03-17T04:04:01.744Z,9.71
2023-03-17T04:05:05.794Z,9.71
2023-03-17T04:06:07.489Z,9.71
2023-03-17T04:07:09.995Z,9.71
2023-03-17T04:08:11.688Z,9.71
2023-03-17T04:09:14.344Z,9.69
2023-03-17T04:10:16.246Z,9.70
2023-03-17T04:11:20.091Z,9.71
2023-03-17T04:12:21.673Z,9.70
2023-03-17T04:13:24.368Z,9.70
2023-03-17T04:14:25.904Z,9.71
2023-03-17T04:15:28.406Z,9.71
2023-03-17T04:16:30.192Z,9.70
2023-03-17T04:17:43.238Z,9.70
2023-03-17T04:18:44.806Z,9.69
2023-03-17T04:19:47.301Z,9.69
2023-03-17T04:20:48.911Z,9.69
2023-03-17T04:21:53.722Z,9.68
2023-03-17T04:22:56.293Z,9.68
2023-03-17T04:23:58.918Z,9.68
2023-03-17T04:25:00.777Z,9.67
2023-03-17T04:26:13.463Z,9.67
2023-03-17T04:27:17.402Z,9.67
2023-03-17T04:28:20.470Z,9.68
2023-03-17T04:29:32.181Z,9.68
2023-03-17T04:30:34.704Z,9.68
2023-03-17T04:31:37.436Z,9.67
2023-03-17T04:32:40.437Z,9.67
2023-03-17T04:33:42.294Z,9.67
2023-03-17T04:34:44.938Z,9.68
2023-03-17T04:35:46.525Z,9.69
2023-03-17T04:36:49.086Z,9.68
2023-03-17T04:37:51.889Z,9.70
2023-03-17T04:38:53.572Z,9.70
2023-03-17T04:39:56.327Z,9.71
2023-03-17T04:40:57.924Z,9.72
2023-03-17T04:42:00.726Z,9.71
2023-03-17T04:43:06.450Z,9.72
2023-03-17T04:44:08.523Z,9.71
2023-03-17T04:45:13.959Z,9.70
2023-03-17T04:46:16.155Z,9.70
2023-03-17T04:47:18.706Z,9.71
2023-03-17T04:48:20.323Z,9.70
2023-03-17T04:49:22.883Z,9.70
2023-03-17T04:50:24.419Z,9.69
2023-03-17T04:51:27.192Z,9.69
2023-03-17T04:52:28.812Z,9.69
2023-03-17T04:53:31.523Z,9.69
2023-03-17T04:54:33.125Z,9.68
2023-03-17T04:55:35.959Z,9.68
2023-03-17T04:56:38.526Z,9.68
2023-03-17T04:57:40.506Z,9.69
2023-03-17T04:58:44.534Z,9.70
2023-03-17T04:59:46.245Z,9.70
2023-03-17T05:00:48.895Z,9.70
2023-03-17T05:01:51.227Z,9.72
2023-03-17T05:02:53.772Z,9.72
2023-03-17T05:03:55.972Z,9.72
2023-03-17T05:04:58.574Z,9.71
2023-03-17T05:06:00.890Z,9.73
2023-03-17T05:07:03.672Z,9.70
2023-03-17T05:08:05.689Z,9.71
2023-03-17T05:09:08.518Z,9.71
2023-03-17T05:10:12.275Z,9.69
2023-03-17T05:11:15.665Z,9.70
2023-03-17T05:12:17.412Z,9.71
2023-03-17T05:13:19.924Z,9.69
2023-03-17T05:14:23.065Z,9.69
2023-03-17T05:15:26.724Z,9.68
2023-03-17T05:16:28.383Z,9.68
2023-03-17T05:17:30.975Z,9.68
2023-03-17T05:18:33.445Z,9.68
2023-03-17T05:19:36.377Z,9.67
2023-03-17T05:20:38.040Z,9.66
2023-03-17T05:21:40.666Z,9.67
2023-03-17T05:22:42.202Z,9.65
2023-03-17T05:23:45.183Z,9.64
2023-03-17T05:24:47.482Z,9.64
2023-03-17T05:25:50.905Z,9.62
2023-03-17T05:26:52.538Z,9.62
2023-03-17T05:27:55.312Z,9.61
2023-03-17T05:28:56.860Z,9.60
2023-03-17T05:30:00.797Z,9.61
2023-03-17T05:31:03.348Z,9.60
2023-03-17T05:32:06.773Z,9.60
2023-03-17T05:33:08.539Z,9.60
2023-03-17T05:34:11.177Z,9.60
2023-03-17T05:35:12.975Z,9.59
2023-03-17T05:36:15.536Z,9.60
2023-03-17T05:37:17.361Z,9.58
2023-03-17T05:38:30.454Z,9.59
2023-03-17T05:39:32.752Z,9.58
2023-03-17T05:40:35.482Z,9.58
2023-03-17T05:41:37.116Z,9.58
2023-03-17T05:42:39.872Z,9.58
2023-03-17T05:43:41.766Z,9.58
2023-03-17T05:44:44.502Z,9.58
2023-03-17T05:45:49.941Z,9.58
2023-03-17T05:47:02.835Z,9.58
2023-03-17T05:48:05.025Z,9.58
2023-03-17T05:49:07.538Z,9.57
2023-03-17T05:50:19.217Z,9.58
2023-03-17T05:51:22.653Z,9.56
2023-03-17T05:52:24.322Z,9.57
2023-03-17T05:53:27.070Z,9.58
2023-03-17T05:54:28.823Z,9.57
2023-03-17T05:55:31.341Z,9.57
2023-03-17T05:56:34.161Z,9.58
2023-03-17T05:57:43.768Z,9.59
2023-03-17T05:58:46.589Z,9.59
2023-03-17T05:59:48.699Z,9.61
2023-03-17T06:00:52.600Z,9.60
2023-03-17T06:01:54.226Z,9.62
2023-03-17T06:02:56.691Z,9.61
2023-03-17T06:04:08.432Z,9.63
2023-03-17T06:05:11.684Z,9.62
2023-03-17T06:06:13.339Z,9.63
2023-03-17T06:07:17.344Z,9.63
2023-03-17T06:08:18.975Z,9.63
2023-03-17T06:09:21.501Z,9.64
2023-03-17T06:10:26.180Z,9.65
2023-03-17T06:11:28.895Z,9.66
2023-03-17T06:12:40.566Z,9.67
2023-03-17T06:13:43.258Z,9.68
2023-03-17T06:14:44.895Z,9.68
2023-03-17T06:15:52.100Z,9.70
2023-03-17T06:16:55.020Z,9.72
2023-03-17T06:17:57.568Z,9.73
2023-03-17T06:18:59.200Z,9.74
2023-03-17T06:20:01.805Z,9.75
2023-03-17T06:21:08.567Z,9.76
2023-03-17T06:22:11.373Z,9.77
2023-03-17T06:23:19.752Z,9.79
2023-03-17T06:24:21.557Z,9.80
2023-03-17T06:25:35.349Z,9.82
2023-03-17T06:26:37.219Z,9.83
2023-03-17T06:27:39.821Z,9.84
2023-03-17T06:28:42.411Z,9.88
2023-03-17T06:29:44.115Z,9.89
2023-03-17T06:30:48.837Z,9.91
2023-03-17T06:31:51.271Z,9.93
2023-03-17T06:32:55.313Z,9.97
2023-03-17T06:33:58.293Z,9.99
2023-03-17T06:34:59.953Z,10.00
2023-03-17T06:36:03.192Z,10.02
2023-03-17T06:37:05.091Z,10.05
2023-03-17T06:38:08.106Z,10.08
2023-03-17T06:39:10.858Z,10.10
2023-03-17T06:40:14.858Z,10.14
2023-03-17T06:41:16.691Z,10.18
2023-03-17T06:42:19.256Z,10.22
2023-03-17T06:43:22.076Z,10.23
2023-03-17T06:44:24.803Z,10.27
2023-03-17T06:45:36.964Z,10.30
2023-03-17T06:46:39.647Z,10.31
2023-03-17T06:47:41.436Z,10.35
2023-03-17T06:48:47.640Z,10.37
2023-03-17T06:49:49.261Z,10.41
2023-03-17T06:50:51.815Z,10.44
2023-03-17T06:51:53.929Z,10.47
2023-03-17T06:52:56.540Z,10.50
2023-03-17T06:53:58.420Z,10.54
2023-03-17T06:55:01.024Z,10.57
2023-03-17T06:56:04.984Z,10.59
2023-03-17T06:57:07.835Z,10.61
2023-03-17T06:58:13.045Z,10.63
2023-03-17T06:59:14.757Z,10.66
2023-03-17T07:00:18.096Z,10.68
2023-03-17T07:01:22.100Z,10.71
2023-03-17T07:02:24.858Z,10.72
2023-03-17T07:03:27.311Z,10.76
2023-03-17T07:04:31.834Z,10.79
2023-03-17T07:05:34.477Z,10.82
2023-03-17T07:06:36.200Z,10.85
2023-03-17T07:07:38.745Z,10.89
2023-03-17T07:08:41.398Z,10.90
2023-03-17T07:09:45.102Z,10.93
2023-03-17T07:10:46.949Z,10.94
2023-03-17T07:11:49.784Z,10.99
2023-03-17T07:12:52.477Z,11.02
2023-03-17T07:13:54.123Z,11.04
2023-03-17T07:14:56.824Z,11.06
2023-03-17T07:16:00.514Z,11.08
2023-03-17T07:17:03.491Z,11.10
2023-03-17T07:18:06.333Z,11.11
2023-03-17T07:19:09.852Z,11.13
2023-03-17T07:20:13.896Z,11.15
2023-03-17T07:21:16.652Z,11.16
2023-03-17T07:22:19.203Z,11.17
2023-03-17T07:23:22.832Z,11.18
2023-03-17T07:24:26.519Z,11.19
2023-03-17T07:25:28.400Z,11.19
2023-03-17T07:26:31.402Z,11.22
2023-03-17T07:27:33.148Z,11.24
2023-03-17T07:28:35.701Z,11.26
2023-03-17T07:29:39.002Z,11.27
2023-03-17T07:30:46.819Z,11.29
2023-03-17T07:31:50.429Z,11.31
2023-03-17T07:32:53.781Z,11.33
2023-03-17T07:34:06.552Z,11.35
2023-03-17T07:35:09.382Z,11.38
2023-03-17T07:36:15.461Z,11.39
2023-03-17T07:37:19.322Z,11.42
2023-03-17T07:38:21.871Z,11.45
2023-03-17T07:39:24.862Z,11.46
2023-03-17T07:40:26.710Z,11.50
2023-03-17T07:41:29.948Z,11.53
2023-03-17T07:42:31.469Z,11.54
2023-03-17T07:43:34.043Z,11.58
2023-03-17T07:44:37.475Z,11.60
2023-03-17T07:45:40.304Z,11.63
2023-03-17T07:46:42.844Z,11.65
2023-03-17T07:47:46.273Z,11.68
2023-03-17T07:48:48.900Z,11.69
2023-03-17T07:49:50.568Z,11.71
2023-03-17T07:50:53.586Z,11.74
2023-03-17T07:51:56.457Z,11.75
2023-03-17T07:52:59.002Z,11.77
2023-03-17T07:54:03.788Z,11.78
2023-03-17T07:55:10.516Z,11.81
2023-03-17T07:56:13.809Z,11.81
2023-03-17T07:57:16.554Z,11.82
2023-03-17T07:58:20.131Z,11.83
2023-03-17T07:59:21.966Z,11.84
2023-03-17T08:00:27.020Z,11.84
2023-03-17T08:01:34.746Z,11.86
2023-03-17T08:02:36.703Z,11.87
2023-03-17T08:03:41.283Z,11.88
2023-03-17T08:04:43.336Z,11.90
2023-03-17T08:05:47.024Z,11.90
2023-03-17T08:06:49.679Z,11.92
2023-03-17T08:07:53.541Z,11.93
2023-03-17T08:08:56.465Z,11.95
2023-03-17T08:09:58.840Z,11.96
2023-03-17T08:11:03.427Z,11.99
2023-03-17T08:12:08.302Z,11.99
2023-03-17T08:13:10.833Z,11.99
2023-03-17T08:14:13.051Z,12.01
2023-03-17T08:15:15.695Z,12.04
2023-03-17T08:16:17.388Z,12.05
2023-03-17T08:17:20.058Z,12.08
2023-03-17T08:18:22.927Z,12.10
2023-03-17T08:19:25.561Z,12.11
2023-03-17T08:20:27.199Z,12.15
2023-03-17T08:21:30.029Z,12.16
2023-03-17T08:22:32.647Z,12.18
2023-03-17T08:23:36.835Z,12.20
2023-03-17T08:24:42.767Z,12.20
2023-03-17T08:25:44.782Z,12.22
2023-03-17T08:26:49.155Z,12.23
2023-03-17T08:27:50.998Z,12.26
2023-03-17T08:28:53.721Z,12.29
2023-03-17T08:29:56.768Z,12.33
2023-03-17T08:31:10.386Z,12.34
2023-03-17T08:32:15.357Z,12.34
2023-03-17T08:33:17.370Z,12.36
2023-03-17T08:34:20.008Z,12.37
2023-03-17T08:35:23.847Z,12.37
2023-03-17T08:36:25.991Z,12.38
2023-03-17T08:37:28.532Z,12.39
2023-03-17T08:38:30.225Z,12.40
2023-03-17T08:39:35.086Z,12.40
2023-03-17T08:40:38.247Z,12.39
2023-03-17T08:41:39.872Z,12.40
2023-03-17T08:42:42.381Z,12.40
2023-03-17T08:43:44.841Z,12.40
2023-03-17T08:44:47.311Z,12.42
2023-03-17T08:45:49.599Z,12.45
2023-03-17T08:46:53.441Z,12.48
2023-03-17T08:47:55.824Z,12.50
2023-03-17T08:48:59.539Z,12.53
2023-03-17T08:50:01.196Z,12.58
2023-03-17T08:51:05.400Z,12.62
2023-03-17T08:52:07.996Z,12.65
2023-03-17T08:53:10.539Z,12.68
2023-03-17T08:54:23.049Z,12.68
2023-03-17T08:55:27.008Z,12.71
2023-03-17T08:56:28.903Z,12.72
2023-03-17T08:57:31.981Z,12.76
2023-03-17T08:58:34.982Z,12.78
2023-03-17T08:59:37.623Z,12.82
2023-03-17T09:00:40.750Z,12.82
2023-03-17T09:01:45.563Z,12.83
2023-03-17T09:02:48.348Z,12.82
2023-03-17T09:03:51.850Z,12.84
2023-03-17T09:04:54.115Z,12.84
2023-03-17T09:05:56.814Z,12.86
2023-03-17T09:07:03.611Z,12.86
2023-03-17T09:08:06.012Z,12.87
2023-03-17T09:09:08.539Z,12.89
2023-03-17T09:10:13.573Z,12.92
2023-03-17T09:11:20.994Z,12.93
2023-03-17T09:12:22.774Z,12.94
2023-03-17T09:13:25.518Z,12.97
2023-03-17T09:14:27.459Z,12.99
2023-03-17T09:15:31.080Z,13.02
2023-03-17T09:16:34.283Z,13.04
2023-03-17T09:17:35.924Z,13.07
2023-03-17T09:18:38.818Z,13.11
2023-03-17T09:19:41.466Z,13.16
2023-03-17T09:20:43.192Z,13.20
2023-03-17T09:21:46.151Z,13.25
2023-03-17T09:22:49.095Z,13.26
2023-03-17T09:23:51.887Z,13.30
2023-03-17T09:24:53.684Z,13.35
2023-03-17T09:25:57.074Z,13.40
2023-03-17T09:27:01.334Z,13.45
2023-03-17T09:28:03.692Z,13.51
2023-03-17T09:29:07.134Z,13.55
2023-03-17T09:30:10.773Z,13.62
2023-03-17T09:31:13.584Z,13.65
2023-03-17T09:32:16.026Z,13.68
2023-03-17T09:33:18.660Z,13.71
2023-03-17T09:34:21.170Z,13.73
2023-03-17T09:35:23.751Z,13.73
2023-03-17T09:36:26.650Z,13.75
2023-03-17T09:37:28.248Z,13.74
2023-03-17T09:38:31.609Z,13.74
2023-03-17T09:39:34.358Z,13.75
2023-03-17T09:40:44.647Z,13.76
2023-03-17T09:41:58.457Z,13.77
2023-03-17T09:43:12.241Z,13.80
2023-03-17T09:44:29.296Z,13.82
2023-03-17T09:45:35.733Z,13.83
2023-03-17T09:46:48.387Z,13.85
2023-03-17T09:48:03.016Z,13.85
2023-03-17T09:49:08.768Z,13.85
2023-03-17T09:50:15.901Z,13.84
2023-03-17T09:51:20.011Z,13.85
2023-03-17T09:52:27.132Z,13.85
2023-03-17T09:53:34.506Z,13.88
2023-03-17T09:54:38.003Z,13.88
2023-03-17T09:55:41.596Z,13.92
2023-03-17T09:56:49.377Z,13.93
2023-03-17T09:57:53.660Z,13.96
2023-03-17T09:59:01.020Z,13.99
2023-03-17T10:00:07.203Z,14.02
2023-03-17T10:01:12.714Z,14.05
2023-03-17T10:02:21.849Z,14.08
2023-03-17T10:03:25.615Z,14.11
2023-03-17T10:04:28.867Z,14.13
2023-03-17T10:05:32.259Z,14.15
2023-03-17T10:06:38.880Z,14.18
2023-03-17T10:07:47.089Z,14.21
2023-03-17T10:08:56.416Z,14.23
2023-03-17T10:10:17.504Z,14.26
2023-03-17T10:11:32.938Z,14.27
2023-03-17T10:12:47.102Z,14.27
2023-03-17T10:13:54.931Z,14.28
2023-03-17T10:15:03.759Z,14.31
2023-03-17T10:16:08.285Z,14.32
2023-03-17T10:17:18.122Z,14.33
2023-03-17T10:18:27.090Z,14.34
2023-03-17T10:19:33.460Z,14.34
2023-03-17T10:20:39.285Z,14.37
2023-03-17T10:21:51.767Z,14.38
2023-03-17T10:22:58.013Z,14.41
2023-03-17T10:24:01.838Z,14.40
2023-03-17T10:25:09.137Z,14.41
2023-03-17T10:26:25.964Z,14.40
2023-03-17T10:27:28.726Z,14.38
2023-03-17T10:28:35.850Z,14.39
2023-03-17T10:29:38.266Z,14.39
2023-03-17T10:30:43.412Z,14.38
2023-03-17T10:31:45.036Z,14.36
2023-03-17T10:32:48.127Z,14.36
2023-03-17T10:33:52.418Z,14.37
2023-03-17T10:34:57.116Z,14.40
2023-03-17T10:36:09.059Z,14.42
2023-03-17T10:37:16.274Z,14.45
2023-03-17T10:38:20.342Z,14.48
2023-03-17T10:39:25.094Z,14.50
2023-03-17T10:40:30.469Z,14.55
2023-03-17T10:41:35.867Z,14.58
2023-03-17T10:42:48.993Z,14.60
2023-03-17T10:43:51.774Z,14.64
2023-03-17T10:44:57.384Z,14.69
2023-03-17T10:46:03.154Z,14.73
2023-03-17T10:47:05.120Z,14.79
2023-03-17T10:48:10.102Z,14.84
2023-03-17T10:49:17.978Z,14.87
2023-03-17T10:50:23.560Z,14.89
2023-03-17T10:51:31.754Z,14.94
2023-03-17T10:52:40.583Z,14.96
2023-03-17T10:53:43.744Z,15.00
2023-03-17T10:54:49.128Z,15.04
2023-03-17T10:55:52.483Z,15.09
2023-03-17T10:57:02.088Z,15.15
2023-03-17T10:58:07.583Z,15.19
2023-03-17T10:59:17.842Z,15.20
2023-03-17T11:00:23.145Z,15.22
2023-03-17T11:01:37.055Z,15.25
2023-03-17T11:02:46.146Z,15.27
2023-03-17T11:03:49.652Z,15.29
2023-03-17T11:04:55.878Z,15.33
2023-03-17T11:06:03.808Z,15.38
2023-03-17T11:07:18.835Z,15.43
2023-03-17T11:08:20.961Z,15.48
2023-03-17T11:09:23.869Z,15.54
2023-03-17T11:10:30.179Z,15.58
2023-03-17T11:11:34.573Z,15.63
2023-03-17T11:12:40.529Z,15.67
2023-03-17T11:13:42.111Z,15.70
2023-03-17T11:14:45.113Z,15.72
2023-03-17T11:15:52.377Z,15.75
2023-03-17T11:17:00.108Z,15.78
2023-03-17T11:18:04.347Z,15.82
2023-03-17T11:19:12.182Z,15.86
2023-03-17T11:20:27.519Z,15.91
2023-03-17T11:21:32.355Z,15.95
2023-03-17T11:22:40.019Z,15.98
2023-03-17T11:23:49.646Z,16.01
2023-03-17T11:25:09.553Z,16.04
2023-03-17T11:26:28.858Z,16.08
2023-03-17T11:27:33.789Z,16.15
2023-03-17T11:28:40.958Z,16.21
2023-03-17T11:29:54.363Z,16.25
2023-03-17T11:31:09.352Z,16.30
2023-03-17T11:32:26.558Z,16.34
2023-03-17T11:33:41.566Z,16.37
2023-03-17T11:34:59.595Z,16.39
2023-03-17T11:36:08.540Z,16.40
2023-03-17T11:37:21.441Z,16.44
2023-03-17T11:38:28.210Z,16.44
2023-03-17T11:39:40.581Z,16.49
2023-03-17T11:41:00.673Z,16.51
2023-03-17T11:42:13.230Z,16.52
2023-03-17T11:43:31.360Z,16.53
2023-03-17T11:45:11.037Z,16.53
2023-03-17T11:46:20.054Z,16.54
2023-03-17T11:47:37.061Z,16.56
2023-03-17T11:48:52.874Z,16.60
2023-03-17T11:50:03.333Z,16.62
2023-03-17T11:51:15.260Z,16.64
2023-03-17T11:52:26.721Z,16.67
2023-03-17T11:53:44.835Z,16.68
2023-03-17T11:54:56.651Z,16.69
2023-03-17T11:56:04.636Z,16.73
2023-03-17T11:57:15.170Z,16.76
2023-03-17T11:58:29.085Z,16.79
2023-03-17T11:59:36.610Z,16.81
2023-03-17T12:00:43.913Z,16.84
2023-03-17T12:01:56.430Z,16.85
2023-03-17T12:03:08.524Z,16.87
2023-03-17T12:04:18.798Z,16.86
2023-03-17T12:05:25.014Z,16.85
2023-03-17T12:06:32.426Z,16.83
2023-03-17T12:07:37.443Z,16.81
2023-03-17T12:08:45.366Z,16.81
2023-03-17T12:12:06.000Z,16.77
2023-03-17T12:13:17.870Z,16.80
2023-03-17T12:14:27.841Z,16.83
2023-03-17T12:15:37.173Z,16.84
2023-03-17T12:16:43.250Z,16.86
2023-03-17T12:17:52.505Z,16.88
2023-03-17T12:19:03.451Z,16.91
2023-03-17T12:20:18.045Z,16.94
2023-03-17T12:21:25.482Z,16.97
2023-03-17T12:22:32.851Z,17.02
2023-03-17T12:23:40.172Z,17.02
2023-03-17T12:24:46.871Z,17.05
2023-03-17T12:25:58.046Z,17.05
2023-03-17T12:27:16.762Z,17.07
2023-03-17T12:28:24.397Z,17.09
2023-03-17T12:29:43.536Z,17.10
2023-03-17T12:30:54.305Z,17.14
2023-03-17T12:32:04.136Z,17.17
2023-03-17T12:33:20.667Z,17.19
2023-03-17T12:34:28.658Z,17.21
2023-03-17T12:35:34.153Z,17.23
2023-03-17T12:36:36.748Z,17.25
2023-03-17T12:37:41.110Z,17.27
2023-03-17T12:38:45.125Z,17.29
2023-03-17T12:39:55.847Z,17.32
2023-03-17T12:41:19.427Z,17.31
2023-03-17T12:42:36.655Z,17.32
2023-03-17T12:43:56.308Z,17.33
2023-03-17T12:45:32.302Z,17.36
2023-03-17T12:46:51.087Z,17.38
2023-03-17T12:48:11.276Z,17.40
2023-03-17T12:49:54.660Z,17.43
2023-03-17T12:51:22.540Z,17.44
2023-03-17T12:52:38.436Z,17.46
2023-03-17T12:53:42.031Z,17.48
2023-03-17T12:54:49.834Z,17.50
2023-03-17T12:55:54.675Z,17.51
2023-03-17T12:57:03.864Z,17.52
2023-03-17T12:58:21.266Z,17.55
2023-03-17T12:59:34.061Z,17.56
2023-03-17T13:00:49.045Z,17.58
2023-03-17T13:01:58.507Z,17.60
2023-03-17T13:03:16.482Z,17.60
2023-03-17T13:04:26.508Z,17.62
2023-03-17T13:05:32.775Z,17.65
2023-03-17T13:06:42.477Z,17.68
2023-03-17T13:07:52.441Z,17.72
2023-03-17T13:08:54.025Z,17.75
2023-03-17T13:10:13.161Z,17.75
2023-03-17T13:11:46.870Z,17.73
2023-03-17T13:13:08.724Z,17.73
2023-03-17T13:14:24.519Z,17.75
2023-03-17T13:15:48.254Z,17.76
2023-03-17T13:16:51.629Z,17.76
2023-03-17T13:18:27.125Z,17.78
2023-03-17T13:19:33.932Z,17.80
2023-03-17T13:20:42.530Z,17.81
2023-03-17T13:21:47.134Z,17.81
2023-03-17T13:23:04.120Z,17.79
2023-03-17T13:24:42.894Z,17.78
2023-03-17T13:25:53.273Z,17.78
2023-03-17T13:26:59.285Z,17.80
2023-03-17T13:28:23.153Z,17.81
2023-03-17T13:29:38.671Z,17.82
2023-03-17T13:30:56.821Z,17.83
2023-03-17T13:32:33.134Z,17.84
2023-03-17T13:33:37.280Z,17.86
2023-03-17T13:34:46.179Z,17.87
2023-03-17T13:36:02.677Z,17.89
2023-03-17T13:37:19.875Z,17.88
2023-03-17T13:38:40.576Z,17.88
2023-03-17T13:39:57.936Z,17.89
2023-03-17T13:41:34.888Z,17.89
2023-03-17T13:43:01.153Z,17.88
2023-03-17T13:44:16.234Z,17.88
2023-03-17T13:45:32.134Z,17.90
2023-03-17T13:46:42.203Z,17.91
2023-03-17T13:47:45.800Z,17.94
2023-03-17T13:48:50.269Z,17.95
2023-03-17T13:49:57.108Z,17.98
2023-03-17T13:51:10.115Z,18.00
2023-03-17T13:52:16.201Z,18.01
2023-03-17T13:53:17.902Z,18.03
2023-03-17T13:54:33.778Z,18.05
2023-03-17T13:55:38.799Z,18.08
2023-03-17T13:56:53.780Z,18.06
2023-03-17T13:58:34.021Z,18.05
2023-03-17T13:59:55.700Z,18.05
2023-03-17T14:01:04.428Z,18.05
2023-03-17T14:02:17.016Z,18.04
2023-03-17T14:03:23.186Z,18.06
2023-03-17T14:04:29.729Z,18.06
2023-03-17T14:05:36.141Z,18.06
2023-03-17T14:06:40.437Z,18.08
2023-03-17T14:07:49.382Z,18.09
2023-03-17T14:08:58.150Z,18.11
2023-03-17T14:10:05.395Z,18.15
2023-03-17T14:11:33.240Z,18.18
2023-03-17T14:12:42.073Z,18.18
2023-03-17T14:13:55.318Z,18.19
2023-03-17T14:15:07.070Z,18.19
2023-03-17T14:16:16.698Z,18.18
2023-03-17T14:17:23.563Z,18.21
2023-03-17T14:18:32.214Z,18.22
2023-03-17T14:19:34.926Z,18.22
2023-03-17T14:20:36.727Z,18.25
2023-03-17T14:21:50.980Z,18.26
2023-03-17T14:22:58.766Z,18.29
2023-03-17T14:24:03.959Z,18.31
2023-03-17T14:25:08.358Z,18.31
2023-03-17T14:26:12.129Z,18.31
2023-03-17T14:27:14.977Z,18.29
2023-03-17T14:28:27.414Z,18.28
2023-03-17T14:29:32.915Z,18.25
2023-03-17T14:30:36.687Z,18.23
2023-03-17T14:31:38.294Z,18.23
2023-03-17T14:32:41.088Z,18.22
2023-03-17T14:33:43.729Z,18.22
2023-03-17T14:34:48.221Z,18.24
2023-03-17T14:35:53.031Z,18.25
2023-03-17T14:37:00.783Z,18.28
2023-03-17T14:38:04.413Z,18.30
2023-03-17T14:39:07.153Z,18.31
2023-03-17T14:40:21.777Z,18.32
2023-03-17T14:41:26.130Z,18.33